Time;durP1;ratioP1;P1;durP2;ratioP2;P2;SDS_P1;SDS_P2;PMS_P1;PMS_P2;Temp;Humidity;BMP_temperature;BMP_pressure;BME280_temperature;BME280_humidity;BME280_pressure;Samples;Min_cycle;Max_cycle;Signal;HPM_P1;HPM_P2
2023/12/12 00:01:23;;;;;;;2.78;2.58;;;;;;;2.13;93.76;98932.16;5116050;28;20484;-74
2023/12/12 00:03:54;;;;;;;4.32;2.67;;;;;;;2.04;93.87;98921.88;5117136;28;20466;-74
2023/12/12 00:06:24;;;;;;;3.45;1.92;;;;;;;2.21;94.43;98939.88;5117366;28;20059;-74
2023/12/12 00:08:53;;;;;;;3.85;3.10;;;;;;;2.25;94.58;98936.56;5117199;28;20044;-74
2023/12/12 00:11:22;;;;;;;1.97;1.80;;;;;;;2.24;94.18;98949.97;5116798;28;20039;-74
2023/12/12 00:13:51;;;;;;;2.47;2.30;;;;;;;2.25;94.32;98947.50;5116713;28;20519;-74
2023/12/12 00:16:20;;;;;;;2.05;1.40;;;;;;;2.29;93.68;98954.28;5098634;28;20051;-74
2023/12/12 00:18:50;;;;;;;1.58;1.48;;;;;;;2.30;94.21;98950.97;5116680;28;20047;-74
2023/12/12 00:21:20;;;;;;;2.20;2.00;;;;;;;2.32;94.27;98958.53;5116907;28;20062;-74
2023/12/12 00:23:49;;;;;;;2.55;2.38;;;;;;;2.25;93.62;98962.59;5115578;28;20075;-74
2023/12/12 00:26:18;;;;;;;2.20;2.10;;;;;;;2.22;94.33;98962.53;5116824;28;20496;-74
2023/12/12 00:28:47;;;;;;;2.28;1.88;;;;;;;2.25;94.65;98957.56;5116707;28;20032;-74
2023/12/12 00:31:16;;;;;;;2.20;2.10;;;;;;;2.27;94.81;98963.47;5115627;28;20052;-74
2023/12/12 00:33:44;;;;;;;1.75;1.65;;;;;;;2.34;94.77;98962.78;5116303;28;20778;-74
2023/12/12 00:36:13;;;;;;;1.50;1.40;;;;;;;2.34;94.35;98962.78;5114916;28;20389;-74
2023/12/12 00:38:44;;;;;;;1.52;1.42;;;;;;;2.31;94.44;98951.78;5116573;28;20311;-74
2023/12/12 00:41:13;;;;;;;1.05;0.82;;;;;;;2.40;94.94;98967.91;5116565;27;20043;-74
2023/12/12 00:43:42;;;;;;;6.43;2.40;;;;;;;2.35;94.71;98964.47;5116522;28;20040;-74
2023/12/12 00:46:11;;;;;;;2.22;1.85;;;;;;;2.42;94.89;98968.81;5116413;27;20139;-74
2023/12/12 00:48:40;;;;;;;1.30;1.20;;;;;;;2.31;94.28;98957.69;5116137;28;20502;-74
2023/12/12 00:51:09;;;;;;;1.45;1.35;;;;;;;2.39;94.04;98980.50;5114895;28;20468;-74
2023/12/12 00:53:38;;;;;;;1.75;1.65;;;;;;;2.33;94.46;98971.13;5116552;28;20043;-74
2023/12/12 00:56:09;;;;;;;7.75;3.05;;;;;;;2.37;94.38;98985.50;5116101;28;20054;-74
2023/12/12 00:58:38;;;;;;;2.95;2.53;;;;;;;2.39;94.45;98976.31;5116341;28;20089;-74
2023/12/12 01:01:07;;;;;;;4.37;3.80;;;;;;;2.38;94.19;98979.63;5116128;28;20390;-74
2023/12/12 01:03:35;;;;;;;2.28;2.15;;;;;;;2.33;94.78;98983.72;5115756;28;20055;-74
2023/12/12 01:06:04;;;;;;;2.92;2.72;;;;;;;2.25;94.71;98981.88;5115801;28;20465;-74
2023/12/12 01:08:34;;;;;;;1.58;1.48;;;;;;;2.16;94.16;98971.63;5116088;28;20050;-74
2023/12/12 01:11:03;;;;;;;4.35;3.15;;;;;;;2.13;93.65;98967.38;5114994;28;20067;-74
2023/12/12 01:13:33;;;;;;;1.90;1.80;;;;;;;2.10;93.85;98966.44;5115904;28;20050;-74
2023/12/12 01:16:02;;;;;;;3.35;1.38;;;;;;;2.05;94.27;98958.81;5115900;28;20048;-74
2023/12/12 01:18:32;;;;;;;1.75;1.38;;;;;;;2.08;93.62;98976.50;5114393;28;20039;-74
2023/12/12 01:21:02;;;;;;;0.30;0.30;;;;;;;2.06;94.11;98975.63;5115730;28;20044;-74
2023/12/12 01:23:48;;;;;;;2.70;2.50;;;;;;;1.98;93.95;98982.16;5114317;28;20040;-74
2023/12/12 01:26:18;;;;;;;0.90;0.90;;;;;;;2.01;93.94;98997.31;5115775;28;20420;-74
2023/12/12 01:28:49;;;;;;;2.20;2.10;;;;;;;1.99;93.36;98991.41;5115591;28;20074;-76
2023/12/12 01:31:19;;;;;;;1.85;1.73;;;;;;;1.99;93.93;99003.97;5113937;28;20051;-74
2023/12/12 01:33:48;;;;;;;2.80;2.42;;;;;;;1.41;93.74;98900.38;5114780;28;20473;-74
2023/12/12 01:36:17;;;;;;;0.40;0.40;;;;;;;1.61;93.26;98940.22;5115328;27;20039;-74
2023/12/12 01:38:46;;;;;;;8.18;2.90;;;;;;;1.86;93.76;98984.38;5115454;28;20067;-74
2023/12/12 01:41:16;;;;;;;1.65;1.55;;;;;;;1.90;93.54;98999.59;5115441;28;20457;-74
2023/12/12 01:43:44;;;;;;;2.35;2.15;;;;;;;1.90;94.30;98998.72;5115011;28;20073;-74
2023/12/12 01:46:18;;;;;;;1.63;1.53;;;;;;;1.80;94.04;98962.44;5114137;28;20100;-74
2023/12/12 01:48:48;;;;;;;1.27;1.17;;;;;;;1.91;93.95;98980.31;5115195;28;20284;-74
2023/12/12 01:51:18;;;;;;;1.35;1.25;;;;;;;1.92;93.57;98982.03;5115327;28;20066;-74
2023/12/12 01:53:50;;;;;;;5.82;2.95;;;;;;;1.91;93.70;98990.38;5115236;28;20088;-74
2023/12/12 01:56:19;;;;;;;2.58;1.67;;;;;;;1.76;93.54;98965.72;5115211;28;20135;-74
2023/12/12 01:58:51;;;;;;;1.55;1.45;;;;;;;1.57;93.28;98937.63;5113577;28;20039;-74
2023/12/12 02:01:22;;;;;;;1.02;0.98;;;;;;;2.02;93.77;98993.97;5115082;28;20051;-77
2023/12/12 02:03:53;;;;;;;3.33;3.03;;;;;;;2.05;93.45;98991.53;5115674;28;20044;-77
2023/12/12 02:06:23;;;;;;;2.92;2.72;;;;;;;2.02;93.77;98978.88;5114861;28;20508;-77
2023/12/12 02:08:52;;;;;;;1.15;1.15;;;;;;;2.11;94.01;98999.22;5115208;28;20040;-77
2023/12/12 02:11:22;;;;;;;0.85;0.85;;;;;;;2.04;94.07;98978.09;5113146;28;20047;-77
2023/12/12 02:13:52;;;;;;;0.88;0.88;;;;;;;2.19;93.46;98992.66;5114959;28;20048;-77
2023/12/12 02:16:22;;;;;;;4.47;3.38;;;;;;;2.22;93.96;98992.72;5096585;28;20039;-77
2023/12/12 02:18:51;;;;;;;4.07;3.78;;;;;;;2.24;94.44;98992.75;5114827;28;20043;-78
2023/12/12 02:21:22;;;;;;;2.75;2.55;;;;;;;2.22;93.98;98990.22;5114587;28;20039;-77
2023/12/12 02:23:51;;;;;;;0.55;0.55;;;;;;;2.23;94.58;98984.34;5114416;28;20067;-77
2023/12/12 02:26:20;;;;;;;1.95;1.85;;;;;;;2.25;93.99;98977.72;5114643;28;20104;-77
2023/12/12 02:28:49;;;;;;;0.52;0.52;;;;;;;2.28;94.64;98982.78;5113566;28;20076;-77
2023/12/12 02:31:18;;;;;;;2.08;1.90;;;;;;;2.18;94.31;98955.75;5114297;28;20075;-77
2023/12/12 02:33:47;;;;;;;4.05;2.15;;;;;;;2.32;93.92;98977.00;5114537;28;20048;-77
2023/12/12 02:36:16;;;;;;;1.70;1.60;;;;;;;2.33;93.84;98966.09;5096046;28;20039;-77
2023/12/12 02:38:47;;;;;;;2.95;2.58;;;;;;;2.29;94.42;98966.88;5096403;28;20108;-77
2023/12/12 02:41:17;;;;;;;2.10;1.90;;;;;;;2.23;94.70;98979.31;5114642;28;20044;-76
2023/12/12 02:43:46;;;;;;;3.70;2.25;;;;;;;2.22;94.86;98987.69;5114252;28;20096;-77
2023/12/12 02:46:15;;;;;;;1.33;1.23;;;;;;;2.26;93.90;98989.44;5114406;28;20050;-77
2023/12/12 02:48:44;;;;;;;2.42;2.25;;;;;;;2.16;94.74;98969.94;5112900;28;20073;-77
2023/12/12 02:51:13;;;;;;;2.47;2.17;;;;;;;2.26;94.39;98989.44;5114305;28;20108;-77
2023/12/12 02:53:42;;;;;;;1.50;1.23;;;;;;;2.23;94.56;98996.94;5112401;28;20069;-77
2023/12/12 02:56:12;;;;;;;1.27;1.13;;;;;;;2.13;94.44;98979.09;5114137;28;20035;-77
2023/12/12 02:58:41;;;;;;;0.52;0.52;;;;;;;2.25;95.12;98997.84;5113963;28;20040;-77
2023/12/12 03:01:12;;;;;;;1.37;1.17;;;;;;;2.31;94.93;99002.13;5112992;28;20115;-77
2023/12/12 03:03:42;;;;;;;3.65;3.30;;;;;;;2.36;94.40;99006.44;5114409;28;20276;-77
2023/12/12 03:06:11;;;;;;;2.70;2.50;;;;;;;2.43;94.78;99008.28;5114247;28;20044;-77
2023/12/12 03:08:39;;;;;;;2.53;2.38;;;;;;;2.38;95.52;98994.75;5113789;28;20035;-77
2023/12/12 03:11:08;;;;;;;2.55;1.90;;;;;;;2.48;95.55;99001.66;5114081;28;20118;-77
2023/12/12 03:13:39;;;;;;;2.38;2.25;;;;;;;2.50;94.86;99000.03;5113923;28;20040;-77
2023/12/12 03:16:09;;;;;;;2.83;2.63;;;;;;;2.49;95.30;98995.81;5113911;28;20067;-77
2023/12/12 03:18:38;;;;;;;2.50;2.30;;;;;;;2.45;94.59;98989.00;5114056;28;20051;-77
2023/12/12 03:21:07;;;;;;;1.85;1.52;;;;;;;2.42;95.60;98991.50;5112936;28;20040;-77
2023/12/12 03:23:36;;;;;;;3.55;3.30;;;;;;;2.48;95.03;99001.66;5113599;28;20045;-77
2023/12/12 03:26:08;;;;;;;1.63;1.52;;;;;;;2.48;95.26;99001.66;5114053;28;20036;-77
2023/12/12 03:28:37;;;;;;;2.17;2.08;;;;;;;2.45;95.61;98996.56;5113720;28;20048;-77
2023/12/12 03:31:08;;;;;;;2.15;1.95;;;;;;;2.50;95.73;99007.56;5113743;28;20075;-77
2023/12/12 03:33:37;;;;;;;1.92;1.83;;;;;;;2.21;94.90;98960.81;5112639;28;20048;-77
2023/12/12 03:36:08;;;;;;;1.75;1.42;;;;;;;2.53;95.66;99010.16;5112758;28;20035;-77
2023/12/12 03:38:37;;;;;;;1.85;1.75;;;;;;;2.51;94.98;99006.78;5113890;28;20078;-77
2023/12/12 03:41:06;;;;;;;3.05;2.53;;;;;;;2.49;95.38;99003.38;5113523;28;20126;-77
2023/12/12 03:43:35;;;;;;;4.47;3.03;;;;;;;2.50;95.44;99006.72;5113380;28;20036;-77
2023/12/12 03:46:05;;;;;;;1.55;1.45;;;;;;;2.53;95.75;99005.13;5113838;28;20096;-77
2023/12/12 03:48:35;;;;;;;;;;;;;;;2.52;95.57;99012.66;5114219;28;20071;-77
2023/12/12 03:51:04;;;;;;;3.25;2.00;;;;;;;2.50;95.92;99010.09;5114068;28;19920;-77
2023/12/12 03:53:33;;;;;;;4.75;3.22;;;;;;;2.51;95.02;99019.38;5112783;28;20047;-77
2023/12/12 03:56:03;;;;;;;1.52;1.42;;;;;;;2.49;94.92;99010.94;5113419;28;20401;-77
2023/12/12 03:58:32;;;;;;;3.70;2.10;;;;;;;2.49;95.44;99018.50;5113689;28;20044;-77
2023/12/12 04:01:01;;;;;;;4.05;3.35;;;;;;;2.51;95.72;99016.84;5113825;28;20040;-77
2023/12/12 04:03:32;;;;;;;1.98;1.88;;;;;;;2.51;95.08;99016.84;5095508;28;20382;-77
2023/12/12 04:06:04;;;;;;;2.72;2.53;;;;;;;2.53;95.66;99015.19;5113629;28;20085;-77
2023/12/12 04:08:33;;;;;;;3.45;2.70;;;;;;;2.58;95.46;99018.66;5116674;28;20069;-77
2023/12/12 04:11:02;;;;;;;1.90;1.73;;;;;;;2.59;95.13;99020.34;5115809;28;20040;-77
2023/12/12 04:13:31;;;;;;;1.35;1.25;;;;;;;2.62;95.32;99012.00;5117124;28;20028;-77
2023/12/12 04:16:00;;;;;;;2.78;2.13;;;;;;;2.60;94.93;99017.03;5116974;28;20122;-77
2023/12/12 04:18:30;;;;;;;1.23;1.13;;;;;;;2.63;95.91;99028.81;5116824;28;20122;-77
2023/12/12 04:20:59;;;;;;;4.13;1.85;;;;;;;2.66;95.22;99019.66;5117023;28;20040;-77
2023/12/12 04:23:29;;;;;;;5.40;2.27;;;;;;;2.68;95.87;99019.69;5116096;28;20041;-77
2023/12/12 04:25:58;;;;;;;4.82;4.45;;;;;;;2.67;95.63;99016.31;5116714;28;20874;-75
2023/12/12 04:28:28;;;;;;;2.10;1.95;;;;;;;2.73;95.59;99018.94;5116659;28;20529;-74
2023/12/12 04:30:57;;;;;;;3.13;2.92;;;;;;;2.74;95.20;99022.31;5114666;28;20051;-74
2023/12/12 04:33:26;;;;;;;2.08;1.88;;;;;;;2.76;95.82;99048.38;5115711;28;20359;-74
2023/12/12 04:35:55;;;;;;;2.67;2.35;;;;;;;2.75;94.99;99045.84;5116702;28;20088;-74
2023/12/12 04:38:24;;;;;;;2.40;2.23;;;;;;;2.73;95.69;99039.09;5117202;28;20478;-74
2023/12/12 04:40:54;;;;;;;2.75;2.22;;;;;;;2.69;95.87;99042.38;5116904;28;20042;-74
2023/12/12 04:43:23;;;;;;;2.92;2.65;;;;;;;2.67;95.22;99049.06;5115382;28;20054;-74
2023/12/12 04:45:52;;;;;;;1.50;1.40;;;;;;;2.67;96.10;99054.09;5115165;28;20455;-74
2023/12/12 04:48:21;;;;;;;0.70;0.70;;;;;;;2.66;95.44;99057.44;5116720;28;20097;-74
2023/12/12 04:50:50;;;;;;;3.43;3.10;;;;;;;2.64;95.94;99051.50;5116434;28;20040;-74
2023/12/12 04:53:19;;;;;;;3.30;3.03;;;;;;;2.62;95.86;99054.81;5097741;28;20461;-74
2023/12/12 04:55:48;;;;;;;2.87;2.10;;;;;;;2.55;95.23;99047.97;5116279;28;20485;-74
2023/12/12 04:58:18;;;;;;;2.33;2.13;;;;;;;2.62;95.75;99063.22;5115168;28;20081;-74
2023/12/12 05:00:48;;;;;;;2.17;1.98;;;;;;;2.61;95.79;99068.25;5114900;28;20048;-74
2023/12/12 05:03:17;;;;;;;1.23;1.13;;;;;;;2.44;95.84;99045.25;5116231;28;20100;-74
2023/12/12 05:05:47;;;;;;;4.15;3.80;;;;;;;2.54;95.32;99061.38;5115858;28;20134;-75
2023/12/12 05:08:16;;;;;;;1.48;1.40;;;;;;;2.51;95.61;99072.25;5116146;28;20051;-74
2023/12/12 05:10:45;;;;;;;1.30;1.20;;;;;;;2.53;95.09;99074.78;5115863;28;20043;-74
2023/12/12 05:13:14;;;;;;;3.55;1.80;;;;;;;2.54;95.24;99087.41;5114750;28;20753;-74
2023/12/12 05:15:44;;;;;;;3.00;2.72;;;;;;;2.52;95.07;99083.16;5115638;28;20493;-74
2023/12/12 05:18:15;;;;;;;0.95;0.90;;;;;;;2.55;96.08;99084.06;5114674;28;20122;-74
2023/12/12 05:20:44;;;;;;;5.13;2.55;;;;;;;2.50;95.92;99078.09;5080771;28;20047;-74
2023/12/12 05:23:13;;;;;;;3.10;2.58;;;;;;;2.60;95.24;99090.06;5097621;28;20197;-74
2023/12/12 05:25:42;;;;;;;1.98;1.85;;;;;;;2.60;95.09;99085.03;5114714;28;20093;-74
2023/12/12 05:28:11;;;;;;;1.42;1.17;;;;;;;2.64;95.13;99086.78;5114528;28;20040;-74
2023/12/12 05:30:40;;;;;;;7.25;3.75;;;;;;;2.64;95.72;99084.25;5114010;28;20071;-74
2023/12/12 05:33:11;;;;;;;1.98;1.88;;;;;;;2.66;96.01;99080.09;5115336;28;20454;-74
2023/12/12 05:35:40;;;;;;;3.78;3.38;;;;;;;2.68;95.85;99086.03;5115743;28;20043;-74
2023/12/12 05:38:09;;;;;;;3.00;2.80;;;;;;;2.68;95.24;99072.59;5115258;28;20036;-74
2023/12/12 05:40:38;;;;;;;2.13;1.93;;;;;;;2.67;95.75;99074.25;5114053;28;20708;-74
2023/12/12 05:43:06;;;;;;;3.17;2.97;;;;;;;2.63;95.72;99087.63;5115463;28;20097;-74
2023/12/12 05:45:36;;;;;;;2.67;2.47;;;;;;;2.61;95.71;99093.44;5114938;28;20489;-74
2023/12/12 05:48:05;;;;;;;2.70;2.47;;;;;;;2.59;95.60;99095.91;5115131;28;20040;-74
2023/12/12 05:50:35;;;;;;;;;;;;;;;2.61;95.20;99099.34;5116272;28;20032;-74
2023/12/12 05:53:04;;;;;;;1.33;1.27;;;;;;;2.61;95.23;99095.94;5114033;28;19968;-74
2023/12/12 05:55:33;;;;;;;3.67;2.90;;;;;;;2.62;96.02;99100.16;5115237;28;20031;-74
2023/12/12 05:58:02;;;;;;;1.95;1.85;;;;;;;2.62;95.29;99101.00;5115051;28;20287;-74
2023/12/12 06:00:31;;;;;;;4.33;3.97;;;;;;;2.61;95.50;99104.38;5115106;28;20065;-74
2023/12/12 06:03:00;;;;;;;2.13;1.98;;;;;;;2.63;95.11;99107.75;5115253;28;20036;-74
2023/12/12 06:05:29;;;;;;;2.90;2.33;;;;;;;2.64;95.09;99117.00;5114624;28;20393;-74
2023/12/12 06:07:59;;;;;;;2.00;1.77;;;;;;;2.61;95.53;99122.00;5113597;28;20032;-74
2023/12/12 06:10:28;;;;;;;2.90;2.70;;;;;;;2.57;95.01;99122.72;5114821;28;20156;-74
2023/12/12 06:12:58;;;;;;;1.52;1.42;;;;;;;2.56;95.13;99131.13;5114861;28;20070;-74
2023/12/12 06:15:28;;;;;;;2.17;2.08;;;;;;;2.54;95.79;99125.16;5115142;28;20070;-74
2023/12/12 06:17:57;;;;;;;4.80;1.40;;;;;;;2.54;95.13;99132.72;5114500;28;20508;-77
2023/12/12 06:20:27;;;;;;;3.50;2.10;;;;;;;2.51;95.40;99122.59;5114716;28;20047;-77
2023/12/12 06:22:56;;;;;;;1.77;1.67;;;;;;;2.51;94.95;99127.66;5113500;28;20058;-75
2023/12/12 06:25:26;;;;;;;3.17;1.27;;;;;;;2.49;95.59;99126.75;5113229;28;20031;-74
2023/12/12 06:27:56;;;;;;;1.33;1.23;;;;;;;2.48;95.31;99127.56;5114607;28;20047;-74
2023/12/12 06:30:25;;;;;;;5.07;4.38;;;;;;;2.46;95.34;99129.22;5112093;28;20122;-74
2023/12/12 06:32:55;;;;;;;2.20;1.88;;;;;;;2.47;95.74;99140.97;5113397;28;20122;-74
2023/12/12 06:35:25;;;;;;;3.03;2.83;;;;;;;2.49;95.46;99138.50;5096174;28;20048;-74
2023/12/12 06:37:54;;;;;;;1.60;1.50;;;;;;;2.52;94.91;99144.44;5114594;28;20082;-74
2023/12/12 06:40:23;;;;;;;1.75;1.65;;;;;;;2.52;95.41;99144.44;5114092;28;20164;-74
2023/12/12 06:42:53;;;;;;;3.87;2.30;;;;;;;2.54;95.12;99142.78;5113310;28;20040;-74
2023/12/12 06:45:22;;;;;;;1.48;1.40;;;;;;;2.55;95.86;99142.00;5114167;28;20067;-77
2023/12/12 06:47:51;;;;;;;2.13;2.00;;;;;;;2.56;95.18;99146.22;5114027;28;20040;-77
2023/12/12 06:50:20;;;;;;;2.50;2.30;;;;;;;2.57;95.52;99142.88;5113139;28;20031;-77
2023/12/12 06:52:49;;;;;;;7.33;2.87;;;;;;;2.52;95.81;99134.38;5113968;28;20043;-77
2023/12/12 06:55:18;;;;;;;4.90;4.22;;;;;;;2.57;95.16;99152.09;5113044;28;20272;-77
2023/12/12 06:57:47;;;;;;;0.50;0.50;;;;;;;2.61;95.90;99153.88;5114223;28;20028;-77
2023/12/12 07:00:19;;;;;;;2.05;1.83;;;;;;;2.63;95.47;99152.25;5112571;28;20040;-77
2023/12/12 07:02:48;;;;;;;2.38;2.22;;;;;;;2.68;95.91;99153.19;5113998;28;20043;-77
2023/12/12 07:05:18;;;;;;;4.37;3.97;;;;;;;2.72;95.35;99160.84;5112500;28;20135;-77
2023/12/12 07:07:47;;;;;;;;;;;;;;;2.76;95.79;99164.28;5114122;28;20386;-77
2023/12/12 07:10:16;;;;;;;3.15;2.92;;;;;;;2.75;95.32;99165.09;5112244;28;19919;-78
2023/12/12 07:12:45;;;;;;;3.57;3.30;;;;;;;2.59;95.31;99158.88;5112994;28;20088;-78
2023/12/12 07:15:14;;;;;;;2.08;1.90;;;;;;;2.68;95.61;99175.88;5114358;28;20860;-78
2023/12/12 07:17:45;;;;;;;1.08;1.05;;;;;;;2.64;95.55;99169.03;5114088;28;20051;-78
2023/12/12 07:20:13;;;;;;;2.63;2.38;;;;;;;2.66;95.07;99168.25;5113903;28;20047;-74
2023/12/12 07:22:43;;;;;;;2.15;1.95;;;;;;;2.72;95.09;99162.50;5104618;28;20040;-77
2023/12/12 07:25:12;;;;;;;4.03;1.83;;;;;;;2.74;95.76;99165.91;5095269;28;20400;-77
2023/12/12 07:27:41;;;;;;;3.00;2.72;;;;;;;2.80;95.09;99175.28;5113649;28;20044;-77
2023/12/12 07:30:11;;;;;;;2.28;1.92;;;;;;;2.81;95.39;99171.94;5113567;28;20127;-74
2023/12/12 07:32:40;;;;;;;3.28;3.03;;;;;;;2.86;94.92;99177.91;5113986;28;20044;-74
2023/12/12 07:35:11;;;;;;;1.13;1.08;;;;;;;2.93;95.06;99177.25;5094950;28;20040;-74
2023/12/12 07:37:40;;;;;;;3.28;3.00;;;;;;;2.97;95.20;99187.44;5112957;28;20134;-74
2023/12/12 07:40:09;;;;;;;4.87;3.97;;;;;;;2.94;95.36;99183.97;5113865;28;20036;-75
2023/12/12 07:42:38;;;;;;;1.23;1.13;;;;;;;3.05;95.16;99192.59;5117758;28;20039;-74
2023/12/12 07:45:09;;;;;;;4.43;2.33;;;;;;;3.08;95.54;99187.63;5117873;28;20042;-74
2023/12/12 07:47:38;;;;;;;5.28;3.97;;;;;;;3.03;95.24;99176.59;5105668;28;20134;-75
2023/12/12 07:50:14;;;;;;;2.03;1.55;;;;;;;3.09;95.63;99191.88;5097042;28;20044;-75
2023/12/12 07:52:43;;;;;;;3.63;2.40;;;;;;;3.16;95.94;99192.03;5117215;28;20398;-77
2023/12/12 07:55:12;;;;;;;1.45;1.35;;;;;;;3.22;95.55;99192.16;5117420;28;20039;-77
2023/12/12 07:57:41;;;;;;;1.47;1.37;;;;;;;3.29;95.21;99195.63;5117247;28;20036;-77
2023/12/12 08:00:12;;;;;;;6.15;4.13;;;;;;;3.26;95.35;99183.00;5099396;28;20276;-78
2023/12/12 08:02:41;;;;;;;4.68;2.35;;;;;;;3.41;95.68;99193.34;5117381;28;20138;-78
2023/12/12 08:05:10;;;;;;;3.10;1.95;;;;;;;3.51;96.14;99190.19;5116153;28;20490;-74
2023/12/12 08:07:40;;;;;;;4.23;2.73;;;;;;;3.60;96.11;99187.00;5117127;28;20080;-74
2023/12/12 08:10:10;;;;;;;3.28;3.05;;;;;;;3.66;95.82;99180.41;5117276;28;20345;-74
2023/12/12 08:12:39;;;;;;;3.20;2.63;;;;;;;3.77;95.71;99188.16;5116783;28;20493;-74
2023/12/12 08:15:09;;;;;;;6.17;3.40;;;;;;;3.81;95.86;99185.72;5115879;28;20070;-74
2023/12/12 08:17:39;;;;;;;10.50;3.45;;;;;;;3.86;95.71;99189.16;5117015;28;20067;-74
2023/12/12 08:20:10;;;;;;;10.75;5.10;;;;;;;3.81;95.69;99190.78;5116811;28;20046;-74
2023/12/12 08:22:40;;;;;;;2.60;2.28;;;;;;;3.74;95.55;99193.16;5117323;28;20055;-73
2023/12/12 08:25:10;;;;;;;7.03;3.35;;;;;;;3.66;95.44;99200.59;5116999;28;20142;-73
2023/12/12 08:27:39;;;;;;;4.70;4.18;;;;;;;3.67;95.02;99201.44;5115218;28;20110;-74
2023/12/12 08:30:09;;;;;;;9.90;5.50;;;;;;;3.68;95.30;99203.97;5117084;28;20048;-73
2023/12/12 08:32:38;;;;;;;22.00;5.10;;;;;;;3.73;95.18;99214.16;5114878;28;20051;-73
2023/12/12 08:35:07;;;;;;;;;;;;;;;3.75;95.31;99213.38;5117205;28;20039;-77
2023/12/12 08:37:38;;;;;;;6.45;3.60;;;;;;;3.77;95.36;99213.38;5116727;28;19927;-77
2023/12/12 08:40:11;;;;;;;1.50;1.40;;;;;;;3.80;95.42;99221.00;5116586;28;20047;-74
2023/12/12 08:42:40;;;;;;;2.55;2.35;;;;;;;3.79;95.38;99212.59;5098411;28;20493;-74
2023/12/12 08:45:10;;;;;;;2.20;2.00;;;;;;;3.83;95.07;99221.94;5116563;28;20509;-74
2023/12/12 08:47:39;;;;;;;2.65;2.35;;;;;;;3.87;95.09;99221.16;5097917;28;20489;-74
2023/12/12 08:50:10;;;;;;;1.85;1.75;;;;;;;3.88;94.52;99225.41;5115374;28;20078;-77
2023/12/12 08:52:39;;;;;;;1.83;1.73;;;;;;;3.84;94.96;99205.97;5115423;28;20051;-76
2023/12/12 08:55:11;;;;;;;2.67;2.47;;;;;;;3.84;95.06;99200.91;5115326;28;20043;-77
2023/12/12 08:57:40;;;;;;;3.70;3.38;;;;;;;3.95;94.31;99209.53;5115879;28;20112;-73
2023/12/12 09:00:12;;;;;;;7.60;3.05;;;;;;;3.96;94.37;99208.69;5116923;28;20035;-73
2023/12/12 09:02:41;;;;;;;7.68;3.72;;;;;;;3.90;94.07;99212.78;5116291;28;20040;-73
2023/12/12 09:05:10;;;;;;;9.60;3.15;;;;;;;3.83;93.98;99211.84;5116139;28;20043;-77
2023/12/12 09:07:40;;;;;;;2.57;2.37;;;;;;;3.86;94.14;99216.94;5116028;28;20131;-77
2023/12/12 09:10:11;;;;;;;2.88;2.67;;;;;;;3.86;94.00;99221.97;5116093;28;20481;-71
2023/12/12 09:12:40;;;;;;;5.28;3.42;;;;;;;3.85;93.61;99222.81;5115993;28;20052;-71
2023/12/12 09:15:09;;;;;;;1.92;1.83;;;;;;;3.83;93.87;99219.41;5110765;28;20493;-72
2023/12/12 09:17:38;;;;;;;3.25;3.00;;;;;;;3.87;93.98;99216.13;5104446;28;20029;-73
2023/12/12 09:20:08;;;;;;;4.50;2.92;;;;;;;3.92;93.95;99222.09;5088433;28;20089;-72
2023/12/12 09:22:37;;;;;;;1.98;1.77;;;;;;;3.90;93.54;99220.38;5100326;28;20506;-72
2023/12/12 09:25:06;;;;;;;2.30;2.10;;;;;;;3.87;93.95;99211.06;5095666;28;20064;-73
2023/12/12 09:27:36;;;;;;;3.30;3.00;;;;;;;3.99;93.72;99205.38;5093917;28;20358;-73
2023/12/12 09:30:06;;;;;;;2.85;2.55;;;;;;;4.05;93.61;99216.44;5095044;28;20561;-72
2023/12/12 09:32:35;;;;;;;7.63;3.35;;;;;;;4.13;93.52;99214.03;5095227;28;20040;-73
2023/12/12 09:35:05;;;;;;;3.03;2.77;;;;;;;4.18;93.97;99216.63;5095296;28;20047;-72
2023/12/12 09:37:34;;;;;;;2.40;2.20;;;;;;;4.07;93.86;99184.50;5094656;28;20123;-72
2023/12/12 09:40:05;;;;;;;3.72;3.42;;;;;;;4.18;93.53;99198.97;5095093;28;20040;-73
2023/12/12 09:42:36;;;;;;;3.28;3.00;;;;;;;4.30;93.02;99204.22;5095010;28;20051;-72
2023/12/12 09:45:13;;;;;;;7.20;4.00;;;;;;;4.34;93.21;99199.28;5094760;28;20408;-72
2023/12/12 09:47:44;;;;;;;1.58;1.48;;;;;;;4.37;93.07;99199.28;5093416;28;20067;-73
2023/12/12 09:50:14;;;;;;;1.30;1.23;;;;;;;4.41;93.02;99206.13;5094770;28;20068;-72
2023/12/12 09:52:45;;;;;;;2.75;2.55;;;;;;;4.48;92.81;99197.81;5093760;28;20057;-72
2023/12/12 09:55:15;;;;;;;4.45;2.13;;;;;;;4.48;92.76;99189.38;5094764;28;20048;-72
2023/12/12 09:57:46;;;;;;;3.95;3.63;;;;;;;4.51;92.65;99186.91;5093145;28;20052;-72
2023/12/12 10:00:18;;;;;;;3.10;2.80;;;;;;;4.59;92.55;99191.22;5095064;28;20044;-72
2023/12/12 10:02:47;;;;;;;3.42;3.13;;;;;;;4.62;92.72;99185.38;5094564;28;20036;-72
2023/12/12 10:05:17;;;;;;;3.38;2.90;;;;;;;4.66;92.47;99182.91;5094831;28;20547;-72
2023/12/12 10:07:47;;;;;;;3.47;3.10;;;;;;;4.73;92.43;99183.84;5094367;28;20036;-72
2023/12/12 10:10:29;;;;;;;2.95;2.20;;;;;;;4.81;92.34;99182.28;5094911;28;20118;-72
2023/12/12 10:12:58;;;;;;;6.50;4.10;;;;;;;4.89;92.40;99183.25;5092993;28;20130;-72
2023/12/12 10:15:28;;;;;;;2.67;2.42;;;;;;;4.93;91.87;99187.50;5094579;28;20474;-73
2023/12/12 10:17:58;;;;;;;7.35;4.95;;;;;;;4.95;91.73;99180.78;5094708;28;20097;-72
2023/12/12 10:20:28;;;;;;;3.58;3.28;;;;;;;4.98;91.63;99185.88;5094884;28;20040;-71
2023/12/12 10:22:59;;;;;;;4.50;3.70;;;;;;;5.02;91.74;99187.63;5094481;28;20075;-72
2023/12/12 10:25:30;;;;;;;3.75;3.45;;;;;;;5.02;91.54;99187.63;5094604;28;20367;-71
2023/12/12 10:27:59;;;;;;;3.90;3.55;;;;;;;5.07;91.52;99183.47;5094082;28;20062;-72
2023/12/12 10:30:30;;;;;;;4.10;3.70;;;;;;;5.09;91.48;99198.66;5093643;28;20048;-72
2023/12/12 10:32:59;;;;;;;2.58;2.38;;;;;;;5.12;91.15;99189.44;5093896;28;20048;-72
2023/12/12 10:35:30;;;;;;;2.13;2.00;;;;;;;5.15;91.21;99186.97;5094598;28;20074;-72
2023/12/12 10:38:09;;;;;;;6.05;5.32;;;;;;;4.93;91.25;99136.94;5093828;28;20486;-72
2023/12/12 10:40:39;;;;;;;4.85;3.20;;;;;;;5.24;90.63;99189.59;5094083;28;20138;-72
2023/12/12 10:43:09;;;;;;;2.27;1.93;;;;;;;5.27;90.50;99184.59;5094247;28;20036;-72
2023/12/12 10:45:42;;;;;;;8.75;4.85;;;;;;;5.15;90.67;99174.31;5093732;28;20757;-72
2023/12/12 10:48:17;;;;;;;4.72;4.28;;;;;;;5.28;90.71;99181.22;5092673;28;20086;-72
2023/12/12 10:50:52;;;;;;;4.72;3.92;;;;;;;5.28;90.62;99180.34;5093963;28;20052;-72
2023/12/12 10:53:22;;;;;;;5.30;4.32;;;;;;;5.29;90.49;99177.84;5093847;28;20048;-72
2023/12/12 10:55:54;;;;;;;3.05;2.58;;;;;;;5.33;90.14;99182.13;5094196;28;20044;-72
2023/12/12 10:58:25;;;;;;;2.83;2.63;;;;;;;5.38;90.44;99188.09;5093475;28;20060;-72
2023/12/12 11:00:56;;;;;;;1.80;1.70;;;;;;;5.47;89.97;99186.50;5075979;28;20040;-72
2023/12/12 11:03:26;;;;;;;3.72;2.55;;;;;;;5.52;90.06;99180.63;5092635;28;20164;-72
2023/12/12 11:05:56;;;;;;;4.03;2.83;;;;;;;5.62;89.98;99176.53;5093556;28;20398;-72
2023/12/12 11:08:26;;;;;;;2.47;2.28;;;;;;;5.66;89.88;99180.81;5093632;28;20078;-71
2023/12/12 11:10:55;;;;;;;2.85;2.65;;;;;;;5.64;89.84;99172.34;5094097;28;20161;-72
2023/12/12 11:13:28;;;;;;;4.32;3.95;;;;;;;5.62;89.19;99176.53;5093996;28;20040;-72
2023/12/12 11:16:01;;;;;;;40.63;3.13;;;;;;;5.64;89.18;99174.88;5093411;28;20048;-71
2023/12/12 11:18:31;;;;;;;2.80;2.55;;;;;;;5.66;89.35;99184.19;5079658;28;20055;-71
2023/12/12 11:21:00;;;;;;;2.90;2.22;;;;;;;5.65;88.98;99191.75;5097798;28;20044;-71
2023/12/12 11:23:53;;;;;;;2.70;2.50;;;;;;;5.74;88.76;99187.63;5097517;28;20048;-72
2023/12/12 11:26:26;;;;;;;5.45;2.53;;;;;;;5.79;88.83;99186.00;5097751;28;20050;-72
2023/12/12 11:28:56;;;;;;;6.72;2.92;;;;;;;5.81;88.29;99183.47;5097385;28;20036;-71
2023/12/12 11:31:29;;;;;;;;;;;;;;;5.84;88.54;99178.44;5097669;28;20070;-71
2023/12/12 11:34:05;;;;;;;4.07;3.67;;;;;;;5.92;88.15;99187.00;5096245;28;19920;-72
2023/12/12 11:36:54;;;;;;;7.93;4.25;;;;;;;5.91;88.03;99175.19;5097436;28;20040;-71
2023/12/12 11:39:34;;;;;;;5.47;2.97;;;;;;;5.85;87.77;99181.06;5097833;28;20047;-71
2023/12/12 11:42:17;;;;;;;4.38;3.60;;;;;;;5.87;87.44;99178.53;5095691;28;20044;-72
2023/12/12 11:44:49;;;;;;;2.15;2.03;;;;;;;5.69;87.33;99152.97;5096630;28;20048;-71
2023/12/12 11:47:22;;;;;;;5.85;3.60;;;;;;;5.73;87.82;99170.78;5097253;28;20059;-71
2023/12/12 11:49:51;;;;;;;1.98;1.52;;;;;;;5.77;87.31;99166.56;5097120;28;20047;-71
2023/12/12 11:52:40;;;;;;;4.72;3.30;;;;;;;5.85;87.88;99170.06;5096982;28;20042;-73
2023/12/12 11:55:18;;;;;;;3.72;3.22;;;;;;;5.85;87.36;99165.00;5095810;28;20122;-72
2023/12/12 11:57:47;;;;;;;2.20;2.05;;;;;;;5.91;87.37;99157.44;5097282;28;20055;-72